createdAt,value
2019-04-14T00:02:21.105Z,13.40
2019-04-14T00:04:51.522Z,13.40
2019-04-14T00:07:23.045Z,13.40
2019-04-14T00:09:54.201Z,13.40
2019-04-14T00:12:25.111Z,13.40
2019-04-14T00:14:55.661Z,13.40
2019-04-14T00:17:26.803Z,13.40
2019-04-14T00:19:57.381Z,13.40
2019-04-14T00:22:29.540Z,13.40
2019-04-14T00:25:00.279Z,13.40
2019-04-14T00:27:30.817Z,13.40
2019-04-14T00:30:01.236Z,13.40
2019-04-14T00:32:33.436Z,13.30
2019-04-14T00:35:12.478Z,13.30
2019-04-14T00:38:02.393Z,13.30
2019-04-14T00:40:37.488Z,13.30
2019-04-14T00:43:13.508Z,13.30
2019-04-14T00:45:55.065Z,13.20
2019-04-14T00:48:27.572Z,13.20
2019-04-14T00:50:58.169Z,13.20
2019-04-14T00:53:29.519Z,13.20
2019-04-14T00:56:00.035Z,13.20
2019-04-14T00:58:30.786Z,13.20
2019-04-14T01:01:02.616Z,13.20
2019-04-14T01:03:33.297Z,13.20
2019-04-14T01:06:05.331Z,13.20
2019-04-14T01:08:36.093Z,13.10
2019-04-14T01:11:07.390Z,13.10
2019-04-14T01:13:37.853Z,13.10
2019-04-14T01:16:14.134Z,13.10
2019-04-14T01:18:40.827Z,13.10
2019-04-14T01:21:11.175Z,13.10
2019-04-14T01:23:41.538Z,13.10
2019-04-14T01:26:12.063Z,13.10
2019-04-14T01:28:43.950Z,13.00
2019-04-14T01:31:14.471Z,13.00
2019-04-14T01:33:46.998Z,13.00
2019-04-14T01:36:17.545Z,12.90
2019-04-14T01:38:49.163Z,12.90
2019-04-14T01:41:20.171Z,12.90
2019-04-14T01:43:51.674Z,12.90
2019-04-14T01:46:26.537Z,12.90
2019-04-14T01:48:54.673Z,12.80
2019-04-14T01:51:50.698Z,12.80
2019-04-14T01:54:43.166Z,12.80
2019-04-14T01:57:31.103Z,12.90
2019-04-14T02:00:20.650Z,12.80
2019-04-14T02:02:53.206Z,12.80
2019-04-14T02:05:23.789Z,12.70
2019-04-14T02:07:54.104Z,12.70
2019-04-14T02:10:24.444Z,12.70
2019-04-14T02:12:56.268Z,12.70
2019-04-14T02:15:26.814Z,12.70
2019-04-14T02:17:58.787Z,12.60
2019-04-14T02:20:29.802Z,12.60
2019-04-14T02:23:00.176Z,12.60
2019-04-14T02:25:31.757Z,12.60
2019-04-14T02:28:02.358Z,12.60
2019-04-14T02:30:39.233Z,12.60
2019-04-14T02:33:46.621Z,12.60
2019-04-14T02:36:19.904Z,12.60
2019-04-14T02:46:22.061Z,12.60
2019-04-14T02:48:53.349Z,12.60
2019-04-14T02:51:22.946Z,12.60
2019-04-14T02:56:30.869Z,12.60
2019-04-14T03:04:03.805Z,12.60
2019-04-14T03:06:33.515Z,12.50
2019-04-14T03:14:15.502Z,12.50
2019-04-14T03:20:05.418Z,12.50
2019-04-14T03:22:55.761Z,12.40
2019-04-14T03:25:41.058Z,12.40
2019-04-14T03:28:36.524Z,12.40
2019-04-14T03:31:39.673Z,12.40
2019-04-14T03:34:18.000Z,12.50
2019-04-14T03:41:30.734Z,12.40
2019-04-14T03:44:07.504Z,12.40
2019-04-14T03:46:45.051Z,12.40
2019-04-14T03:49:08.104Z,12.40
2019-04-14T03:51:44.656Z,12.40
2019-04-14T03:54:20.610Z,12.30
2019-04-14T03:56:51.536Z,12.30
2019-04-14T03:59:22.198Z,12.30
2019-04-14T04:01:52.513Z,12.30
2019-04-14T04:04:23.099Z,12.30
2019-04-14T04:06:53.649Z,12.30
2019-04-14T04:09:30.071Z,12.30
2019-04-14T04:12:01.039Z,12.30
2019-04-14T04:14:31.460Z,12.20
2019-04-14T04:17:21.198Z,12.20
2019-04-14T04:20:02.464Z,12.20
2019-04-14T04:22:56.558Z,12.20
2019-04-14T04:25:55.130Z,12.10
2019-04-14T04:28:54.003Z,12.10
2019-04-14T04:31:41.981Z,12.10
2019-04-14T04:34:29.713Z,12.10
2019-04-14T04:37:21.875Z,12.10
2019-04-14T04:39:53.917Z,12.10
2019-04-14T04:42:24.990Z,12.00
2019-04-14T04:44:55.816Z,12.00
2019-04-14T04:47:27.299Z,12.00
2019-04-14T04:49:58.238Z,11.90
2019-04-14T04:52:28.664Z,11.90
2019-04-14T04:55:00.186Z,11.90
2019-04-14T04:57:31.140Z,11.90
2019-04-14T05:00:02.937Z,11.90
2019-04-14T05:02:33.486Z,11.90
2019-04-14T05:05:04.177Z,11.90
2019-04-14T05:07:34.669Z,11.90
2019-04-14T05:10:24.149Z,11.80
2019-04-14T05:13:05.157Z,11.90
2019-04-14T05:15:55.197Z,11.90
2019-04-14T05:18:29.032Z,11.90
2019-04-14T05:20:59.669Z,11.80
2019-04-14T05:23:30.162Z,11.90
2019-04-14T05:26:00.905Z,11.90
2019-04-14T05:28:31.348Z,11.90
2019-04-14T05:31:01.785Z,11.90
2019-04-14T05:33:33.567Z,11.90
2019-04-14T05:36:04.236Z,11.90
2019-04-14T05:38:35.449Z,11.90
2019-04-14T05:41:07.029Z,11.90
2019-04-14T05:43:46.684Z,12.00
2019-04-14T05:46:10.187Z,12.00
2019-04-14T05:48:40.625Z,12.00
2019-04-14T05:51:11.544Z,12.00
2019-04-14T05:53:42.080Z,12.10
2019-04-14T05:56:12.406Z,12.00
2019-04-14T05:58:42.874Z,12.00
2019-04-14T06:01:13.912Z,12.00
2019-04-14T06:03:45.290Z,12.00
2019-04-14T06:06:15.743Z,12.00
2019-04-14T06:08:46.464Z,12.10
2019-04-14T06:11:17.002Z,12.10
2019-04-14T06:13:47.338Z,12.10
2019-04-14T06:16:17.710Z,12.20
2019-04-14T06:18:48.485Z,12.30
2019-04-14T06:21:18.929Z,12.30
2019-04-14T06:23:49.357Z,12.50
2019-04-14T06:26:19.799Z,12.60
2019-04-14T06:28:50.260Z,12.70
2019-04-14T06:31:29.449Z,12.90
2019-04-14T06:34:17.161Z,13.10
2019-04-14T06:37:12.236Z,13.30
2019-04-14T06:39:45.370Z,13.40
2019-04-14T06:42:15.795Z,13.70
2019-04-14T06:44:47.215Z,13.80
2019-04-14T06:47:19.647Z,13.90
2019-04-14T06:49:50.552Z,14.00
2019-04-14T06:52:20.999Z,14.10
2019-04-14T06:54:51.414Z,14.10
2019-04-14T06:57:21.813Z,14.20
2019-04-14T06:59:52.470Z,14.20
2019-04-14T07:02:23.139Z,14.20
2019-04-14T07:04:53.593Z,14.30
2019-04-14T07:07:24.027Z,14.30
2019-04-14T07:09:54.809Z,14.40
2019-04-14T07:12:26.984Z,14.50
2019-04-14T07:14:57.735Z,14.60
2019-04-14T07:17:28.239Z,14.70
2019-04-14T07:20:02.225Z,15.00
2019-04-14T07:22:30.510Z,15.20
2019-04-14T07:25:00.931Z,15.30
2019-04-14T07:27:31.284Z,15.50
2019-04-14T07:30:20.368Z,15.60
2019-04-14T07:33:12.836Z,15.70
2019-04-14T07:35:53.220Z,15.80
2019-04-14T07:38:36.884Z,15.90
2019-04-14T07:41:21.095Z,16.00
2019-04-14T07:43:56.429Z,16.20
2019-04-14T07:46:42.011Z,16.30
2019-04-14T07:49:44.629Z,16.20
2019-04-14T07:52:30.073Z,16.40
2019-04-14T07:55:28.580Z,16.60
2019-04-14T07:58:22.048Z,16.70
2019-04-14T08:01:02.818Z,16.80
2019-04-14T08:03:50.755Z,16.80
2019-04-14T08:06:21.616Z,16.90
2019-04-14T08:08:52.641Z,17.00
2019-04-14T08:11:23.121Z,17.00
2019-04-14T08:13:53.407Z,17.10
2019-04-14T08:16:23.941Z,17.10
2019-04-14T08:18:55.969Z,17.20
2019-04-14T08:21:26.483Z,17.30
2019-04-14T08:23:57.082Z,17.50
2019-04-14T08:26:27.445Z,17.70
2019-04-14T08:28:57.865Z,17.90
2019-04-14T08:31:28.218Z,18.20
2019-04-14T08:33:58.772Z,18.50
2019-04-14T08:36:29.118Z,18.70
2019-04-14T08:38:59.611Z,18.90
2019-04-14T08:41:35.780Z,19.20
2019-04-14T08:44:19.803Z,19.50
2019-04-14T08:47:07.849Z,19.60
2019-04-14T08:49:48.903Z,19.70
2019-04-14T08:52:41.141Z,20.00
2019-04-14T08:55:45.588Z,20.30
2019-04-14T08:58:50.112Z,20.50
2019-04-14T09:01:35.799Z,20.30
2019-04-14T09:04:23.843Z,20.30
2019-04-14T09:06:59.981Z,20.00
2019-04-14T09:09:53.364Z,19.90
2019-04-14T09:12:28.995Z,19.80
2019-04-14T09:14:59.448Z,19.70
2019-04-14T09:17:30.955Z,19.70
2019-04-14T09:20:01.382Z,19.80
2019-04-14T09:22:31.747Z,19.80
2019-04-14T09:25:02.309Z,20.10
2019-04-14T09:27:32.838Z,20.30
2019-04-14T09:30:03.584Z,20.60
2019-04-14T09:32:34.087Z,21.00
2019-04-14T09:35:04.803Z,21.30
2019-04-14T09:37:35.209Z,21.40
2019-04-14T09:40:05.834Z,21.60
2019-04-14T09:42:36.286Z,21.80
2019-04-14T09:45:07.561Z,22.10
2019-04-14T09:47:38.033Z,22.40
2019-04-14T09:50:10.017Z,22.60
2019-04-14T09:52:40.457Z,22.80
2019-04-14T09:55:11.146Z,22.90
2019-04-14T09:57:41.561Z,23.00
2019-04-14T10:00:14.060Z,23.00
2019-04-14T10:02:44.725Z,22.90
2019-04-14T10:05:15.261Z,23.10
2019-04-14T10:07:46.032Z,23.20
2019-04-14T10:10:16.492Z,23.20
2019-04-14T10:12:46.953Z,23.00
2019-04-14T10:15:17.300Z,22.90
2019-04-14T10:17:47.750Z,23.00
2019-04-14T10:20:18.103Z,22.90
2019-04-14T10:22:48.500Z,22.80
2019-04-14T10:25:18.931Z,22.60
2019-04-14T10:27:49.314Z,22.50
2019-04-14T10:30:19.741Z,22.50
2019-04-14T10:32:50.346Z,22.60
2019-04-14T10:35:20.903Z,22.60
2019-04-14T10:37:51.417Z,22.60
2019-04-14T10:40:22.023Z,22.50
2019-04-14T10:42:53.029Z,22.50
2019-04-14T10:45:23.845Z,22.40
2019-04-14T10:47:54.185Z,22.40
2019-04-14T10:50:30.853Z,22.30
2019-04-14T10:52:57.614Z,22.10
2019-04-14T10:55:27.980Z,22.00
2019-04-14T10:57:59.087Z,21.70
2019-04-14T11:00:29.438Z,21.60
2019-04-14T11:02:59.900Z,21.70
2019-04-14T11:05:34.804Z,21.60
2019-04-14T11:08:05.287Z,21.80
2019-04-14T11:10:35.687Z,21.80
2019-04-14T11:13:06.202Z,21.90
2019-04-14T11:15:36.551Z,21.90
2019-04-14T11:18:07.534Z,22.10
2019-04-14T11:20:37.995Z,22.10
2019-04-14T11:23:08.327Z,22.20
2019-04-14T11:25:38.931Z,22.00
2019-04-14T11:28:09.341Z,22.00
2019-04-14T11:30:39.707Z,22.00
2019-04-14T11:33:19.316Z,22.30
2019-04-14T11:36:17.626Z,22.20
2019-04-14T11:39:08.636Z,22.00
2019-04-14T11:41:39.054Z,22.20
2019-04-14T11:44:09.730Z,22.40
2019-04-14T11:46:40.256Z,22.30
2019-04-14T11:49:11.870Z,22.10
2019-04-14T11:51:54.446Z,22.10
2019-04-14T11:54:14.687Z,22.20
2019-04-14T11:56:45.198Z,22.40
2019-04-14T11:59:15.998Z,22.40
2019-04-14T12:01:59.937Z,22.60
2019-04-14T12:04:55.273Z,22.70
2019-04-14T12:07:54.981Z,22.90
2019-04-14T12:10:28.821Z,23.00
2019-04-14T12:12:59.199Z,23.20
2019-04-14T12:15:29.545Z,23.20
2019-04-14T12:18:00.523Z,23.20
2019-04-14T12:20:30.959Z,23.20
2019-04-14T12:23:01.751Z,23.10
2019-04-14T12:25:32.545Z,23.00
2019-04-14T12:28:02.911Z,23.00
2019-04-14T12:30:35.513Z,22.70
2019-04-14T12:33:06.433Z,22.70
2019-04-14T12:35:38.351Z,22.50
2019-04-14T12:38:09.061Z,22.20
2019-04-14T12:40:40.344Z,22.10
2019-04-14T12:43:28.206Z,22.20
2019-04-14T12:46:26.821Z,22.30
2019-04-14T12:49:05.365Z,22.50
2019-04-14T12:51:38.344Z,22.60
2019-04-14T12:54:08.766Z,22.60
2019-04-14T12:56:39.290Z,22.50
2019-04-14T12:59:17.581Z,22.70
2019-04-14T13:02:02.482Z,22.70
2019-04-14T13:04:32.890Z,22.70
2019-04-14T13:07:03.411Z,22.80
2019-04-14T13:09:33.744Z,22.80
2019-04-14T13:12:04.174Z,23.10
2019-04-14T13:14:34.632Z,23.20
2019-04-14T13:17:05.216Z,23.30
2019-04-14T13:19:35.593Z,23.10
2019-04-14T13:22:06.090Z,23.00
2019-04-14T13:24:37.083Z,22.70
2019-04-14T13:27:07.440Z,22.40
2019-04-14T13:29:38.342Z,22.20
2019-04-14T13:32:08.882Z,22.00
2019-04-14T13:34:42.934Z,21.70
2019-04-14T13:37:13.351Z,21.60
2019-04-14T13:39:44.908Z,21.30
2019-04-14T13:42:16.257Z,21.00
2019-04-14T13:44:46.675Z,21.00
2019-04-14T13:47:17.025Z,21.00
2019-04-14T13:49:47.465Z,20.90
2019-04-14T13:52:17.882Z,20.80
2019-04-14T13:54:48.399Z,20.60
2019-04-14T13:57:19.851Z,20.60
2019-04-14T13:59:50.453Z,20.60
2019-04-14T14:02:21.004Z,20.50
2019-04-14T14:04:51.436Z,20.60
2019-04-14T14:07:21.849Z,20.70
2019-04-14T14:09:53.215Z,21.10
2019-04-14T14:12:32.102Z,21.40
2019-04-14T14:15:24.469Z,21.60
2019-04-14T14:18:33.981Z,21.80
2019-04-14T14:21:29.301Z,21.90
2019-04-14T14:24:21.562Z,21.80
2019-04-14T14:26:52.439Z,21.80
2019-04-14T14:29:23.334Z,21.80
2019-04-14T14:31:54.185Z,22.00
2019-04-14T14:34:24.669Z,22.10
2019-04-14T14:36:54.985Z,22.20
2019-04-14T14:39:25.628Z,22.20
2019-04-14T14:41:56.002Z,22.40
2019-04-14T14:44:31.417Z,22.40
2019-04-14T14:47:15.813Z,22.40
2019-04-14T14:50:17.650Z,22.30
2019-04-14T14:52:47.986Z,22.30
2019-04-14T14:55:18.433Z,22.20
2019-04-14T14:57:48.861Z,22.30
2019-04-14T15:00:31.826Z,22.30
2019-04-14T15:03:02.458Z,22.30
2019-04-14T15:05:33.296Z,22.20
2019-04-14T15:08:03.739Z,22.20
2019-04-14T15:10:34.027Z,22.20
2019-04-14T15:13:04.955Z,22.10
2019-04-14T15:15:35.642Z,22.00
2019-04-14T15:18:06.138Z,21.80
2019-04-14T15:20:38.210Z,21.70
2019-04-14T15:23:08.715Z,21.70
2019-04-14T15:25:39.519Z,21.70
2019-04-14T15:28:11.030Z,21.60
2019-04-14T15:30:41.589Z,21.50
2019-04-14T15:33:13.083Z,21.30
2019-04-14T15:35:43.551Z,21.20
2019-04-14T15:38:14.195Z,21.30
2019-04-14T15:40:44.467Z,21.40
2019-04-14T15:43:15.395Z,21.30
2019-04-14T15:45:45.906Z,21.30
2019-04-14T15:48:16.229Z,21.30
2019-04-14T15:50:47.563Z,21.40
2019-04-14T15:53:18.059Z,21.50
2019-04-14T15:55:48.887Z,21.60
2019-04-14T15:58:32.991Z,21.70
2019-04-14T16:01:34.321Z,21.70
2019-04-14T16:04:26.458Z,21.50
2019-04-14T16:07:14.598Z,21.40
2019-04-14T16:10:13.091Z,21.20
2019-04-14T16:13:02.659Z,21.10
2019-04-14T16:16:00.840Z,21.00
2019-04-14T16:18:52.951Z,20.90
2019-04-14T16:21:23.310Z,20.90
2019-04-14T16:23:53.704Z,20.70
2019-04-14T16:26:49.143Z,20.60
2019-04-14T16:29:24.114Z,20.50
2019-04-14T16:32:11.909Z,20.50
2019-04-14T16:35:04.348Z,20.40
2019-04-14T16:37:35.218Z,20.20
2019-04-14T16:40:06.188Z,20.00
2019-04-14T16:42:36.668Z,19.80
2019-04-14T16:45:07.309Z,19.60
2019-04-14T16:47:37.842Z,19.30
2019-04-14T16:50:08.500Z,19.20
2019-04-14T16:52:58.564Z,19.00
2019-04-14T16:55:49.440Z,18.80
2019-04-14T16:58:23.609Z,18.70
2019-04-14T17:01:01.208Z,18.50
2019-04-14T17:03:31.689Z,18.40
2019-04-14T17:06:02.011Z,18.30
2019-04-14T17:08:32.473Z,18.00
2019-04-14T17:11:02.881Z,17.90
2019-04-14T17:13:36.819Z,17.80
2019-04-14T17:16:26.326Z,17.70
2019-04-14T17:19:05.761Z,17.70
2019-04-14T17:22:08.364Z,17.60
2019-04-14T17:24:57.695Z,17.50
2019-04-14T17:27:50.074Z,17.50
2019-04-14T17:30:34.837Z,17.30
2019-04-14T17:33:26.880Z,17.20
2019-04-14T17:36:19.713Z,17.10
2019-04-14T17:39:11.554Z,16.90
2019-04-14T17:41:59.700Z,16.80
2019-04-14T17:44:57.517Z,16.70
2019-04-14T17:47:56.050Z,16.70
2019-04-14T17:50:51.445Z,16.60
2019-04-14T17:53:27.728Z,16.50
2019-04-14T17:56:29.500Z,16.50
2019-04-14T17:59:27.872Z,16.50
2019-04-14T18:02:08.109Z,16.40
2019-04-14T18:04:52.795Z,16.30
2019-04-14T18:07:27.498Z,16.20
2019-04-14T18:10:16.468Z,16.20
2019-04-14T18:13:13.091Z,16.20
2019-04-14T18:16:02.594Z,16.20
2019-04-14T18:18:50.838Z,16.10
2019-04-14T18:21:21.641Z,15.90
2019-04-14T18:23:52.343Z,15.80
2019-04-14T18:26:22.863Z,15.80
2019-04-14T18:29:11.189Z,15.70
2019-04-14T18:31:48.241Z,15.70
2019-04-14T18:34:53.100Z,15.70
2019-04-14T18:37:29.467Z,15.60
2019-04-14T18:40:11.990Z,15.60
2019-04-14T18:43:00.243Z,15.60
2019-04-14T18:45:36.982Z,15.60
2019-04-14T18:48:25.139Z,15.50
2019-04-14T18:51:08.468Z,15.50
2019-04-14T18:53:57.943Z,15.50
2019-04-14T18:56:53.638Z,15.40
2019-04-14T18:59:43.087Z,15.40
2019-04-14T19:02:14.803Z,15.40
2019-04-14T19:04:45.428Z,15.50
2019-04-14T19:07:16.384Z,15.50
2019-04-14T19:09:47.052Z,15.50
2019-04-14T19:12:35.289Z,15.50
2019-04-14T19:15:15.540Z,15.50
2019-04-14T19:18:07.839Z,15.60
2019-04-14T19:20:40.114Z,15.60
2019-04-14T19:23:10.706Z,15.60
2019-04-14T19:25:41.308Z,15.60
2019-04-14T19:28:11.850Z,15.60
2019-04-14T19:30:42.572Z,15.50
2019-04-14T19:33:12.981Z,15.60
2019-04-14T19:35:43.528Z,15.60
2019-04-14T19:38:13.919Z,15.60
2019-04-14T19:40:45.038Z,15.60
2019-04-14T19:43:23.637Z,15.60
2019-04-14T19:45:48.676Z,15.60
2019-04-14T19:48:19.224Z,15.60
2019-04-14T19:50:50.320Z,15.60
2019-04-14T19:53:20.934Z,15.60
2019-04-14T19:55:51.391Z,15.60
2019-04-14T19:58:21.587Z,15.60
2019-04-14T20:00:52.307Z,15.70
2019-04-14T20:03:23.514Z,15.70
2019-04-14T20:05:53.952Z,15.70
2019-04-14T20:08:24.475Z,15.70
2019-04-14T20:10:55.373Z,15.70
2019-04-14T20:13:26.689Z,15.70
2019-04-14T20:16:18.786Z,15.70
2019-04-14T20:19:10.644Z,15.80
2019-04-14T20:22:00.780Z,15.70
2019-04-14T20:24:49.052Z,15.70
2019-04-14T20:27:38.319Z,15.70
2019-04-14T20:30:13.800Z,15.70
2019-04-14T20:32:46.060Z,15.70
2019-04-14T20:35:16.649Z,15.70
2019-04-14T20:37:47.169Z,15.70
2019-04-14T20:40:17.684Z,15.70
2019-04-14T20:42:48.043Z,15.70
2019-04-14T20:45:18.938Z,15.70
2019-04-14T20:47:49.245Z,15.70
2019-04-14T20:50:20.344Z,15.60
2019-04-14T20:52:50.904Z,15.60
2019-04-14T20:55:21.192Z,15.60
2019-04-14T20:57:51.920Z,15.60
2019-04-14T21:00:22.470Z,15.60
2019-04-14T21:03:20.522Z,15.60
2019-04-14T21:06:04.189Z,15.60
2019-04-14T21:09:13.653Z,15.60
2019-04-14T21:12:04.091Z,15.50
2019-04-14T21:15:02.588Z,15.50
2019-04-14T21:17:57.465Z,15.50
2019-04-14T21:20:41.019Z,15.50
2019-04-14T21:23:15.751Z,15.50
2019-04-14T21:26:01.313Z,15.50
2019-04-14T21:28:41.314Z,15.60
2019-04-14T21:31:15.878Z,15.60
2019-04-14T21:33:58.141Z,15.60
2019-04-14T21:36:40.826Z,15.50
2019-04-14T21:39:30.705Z,15.50
2019-04-14T21:42:02.870Z,15.50
2019-04-14T21:44:33.448Z,15.50
2019-04-14T21:47:04.787Z,15.50
2019-04-14T21:49:35.542Z,15.50
2019-04-14T21:52:24.266Z,15.50
2019-04-14T21:54:54.935Z,15.50
2019-04-14T21:57:42.837Z,15.50
2019-04-14T22:00:39.172Z,15.50
2019-04-14T22:03:27.108Z,15.50
2019-04-14T22:06:20.359Z,15.50
2019-04-14T22:08:52.846Z,15.50
2019-04-14T22:11:24.916Z,15.50
2019-04-14T22:13:55.415Z,15.50
2019-04-14T22:16:27.101Z,15.50
2019-04-14T22:18:57.653Z,15.50
2019-04-14T22:21:28.162Z,15.50
2019-04-14T22:24:01.809Z,15.40
2019-04-14T22:26:30.882Z,15.40
2019-04-14T22:29:02.644Z,15.40
2019-04-14T22:31:33.280Z,15.40
2019-04-14T22:34:04.302Z,15.30
2019-04-14T22:36:34.677Z,15.30
2019-04-14T22:39:07.878Z,15.20
2019-04-14T22:41:38.410Z,15.20
2019-04-14T22:44:08.953Z,15.20
2019-04-14T22:46:39.516Z,15.20
2019-04-14T22:49:10.001Z,15.20
2019-04-14T22:51:40.384Z,15.20
2019-04-14T22:54:11.108Z,15.20
2019-04-14T22:56:41.593Z,15.20
2019-04-14T22:59:12.280Z,15.20
2019-04-14T23:01:44.819Z,15.20
2019-04-14T23:04:52.080Z,15.20
2019-04-14T23:07:40.252Z,15.20
2019-04-14T23:10:28.700Z,15.20
2019-04-14T23:13:11.121Z,15.20
2019-04-14T23:16:02.403Z,15.20
2019-04-14T23:18:37.785Z,15.20
2019-04-14T23:21:19.358Z,15.10
2019-04-14T23:24:28.472Z,15.10
2019-04-14T23:26:59.021Z,15.10
2019-04-14T23:29:29.835Z,15.10
2019-04-14T23:32:00.503Z,15.10
2019-04-14T23:34:30.832Z,15.00
2019-04-14T23:37:01.447Z,15.00
2019-04-14T23:39:32.215Z,15.00
2019-04-14T23:42:03.133Z,15.00
2019-04-14T23:44:34.078Z,14.90
2019-04-14T23:47:04.730Z,14.90
2019-04-14T23:49:35.174Z,14.80
2019-04-14T23:52:05.760Z,14.80
2019-04-14T23:54:36.413Z,14.80
2019-04-14T23:57:06.975Z,14.80
2019-04-14T23:59:38.290Z,14.80
